createdAt,value
2023-08-11T00:00:11.979Z,17.96
2023-08-11T00:00:41.919Z,17.97
2023-08-11T00:01:11.950Z,17.96
2023-08-11T00:01:41.896Z,17.97
2023-08-11T00:02:11.889Z,17.96
2023-08-11T00:02:41.873Z,17.97
2023-08-11T00:03:11.935Z,17.95
2023-08-11T00:03:43.547Z,17.95
2023-08-11T00:04:11.968Z,17.93
2023-08-11T00:04:41.947Z,17.93
2023-08-11T00:05:11.838Z,17.92
2023-08-11T00:05:41.823Z,17.92
2023-08-11T00:06:11.841Z,17.90
2023-08-11T00:06:41.879Z,17.90
2023-08-11T00:07:12.490Z,17.89
2023-08-11T00:07:41.822Z,17.87
2023-08-11T00:08:12.007Z,17.87
2023-08-11T00:08:42.002Z,17.87
2023-08-11T00:09:11.802Z,17.86
2023-08-11T00:09:41.808Z,17.84
2023-08-11T00:10:11.777Z,17.87
2023-08-11T00:10:42.128Z,17.86
2023-08-11T00:11:11.794Z,17.86
2023-08-11T00:11:42.314Z,17.86
2023-08-11T00:12:11.796Z,17.84
2023-08-11T00:12:41.772Z,17.86
2023-08-11T00:13:11.742Z,17.82
2023-08-11T00:13:41.762Z,17.84
2023-08-11T00:14:11.862Z,17.82
2023-08-11T00:14:41.733Z,17.81
2023-08-11T00:15:11.739Z,17.82
2023-08-11T00:15:41.739Z,17.78
2023-08-11T00:16:11.755Z,17.78
2023-08-11T00:16:41.742Z,17.77
2023-08-11T00:17:11.706Z,17.77
2023-08-11T00:17:41.740Z,17.78
2023-08-11T00:18:11.703Z,17.77
2023-08-11T00:18:41.695Z,17.77
2023-08-11T00:19:11.689Z,17.77
2023-08-11T00:19:41.670Z,17.75
2023-08-11T00:20:11.677Z,17.77
2023-08-11T00:20:41.780Z,17.77
2023-08-11T00:21:11.695Z,17.77
2023-08-11T00:21:41.671Z,17.77
2023-08-11T00:22:11.772Z,17.78
2023-08-11T00:22:41.873Z,17.79
2023-08-11T00:23:11.667Z,17.79
2023-08-11T00:23:41.641Z,17.79
2023-08-11T00:24:11.653Z,17.79
2023-08-11T00:24:41.707Z,17.79
2023-08-11T00:25:11.632Z,17.81
2023-08-11T00:25:41.690Z,17.79
2023-08-11T00:26:11.623Z,17.81
2023-08-11T00:26:42.477Z,17.79
2023-08-11T00:27:11.631Z,17.78
2023-08-11T00:27:41.658Z,17.79
2023-08-11T00:28:11.614Z,17.78
2023-08-11T00:28:41.592Z,17.78
2023-08-11T00:29:12.009Z,17.77
2023-08-11T00:29:41.599Z,17.77
2023-08-11T00:30:12.175Z,17.75
2023-08-11T00:30:41.603Z,17.75
2023-08-11T00:31:11.632Z,17.75
2023-08-11T00:31:41.603Z,17.74
2023-08-11T00:32:11.612Z,17.74
2023-08-11T00:32:41.602Z,17.74
2023-08-11T00:33:11.572Z,17.74
2023-08-11T00:33:43.440Z,17.72
2023-08-11T00:34:11.576Z,17.71
2023-08-11T00:34:41.632Z,17.74
2023-08-11T00:35:11.629Z,17.74
2023-08-11T00:35:41.535Z,17.74
2023-08-11T00:36:11.637Z,17.72
2023-08-11T00:36:41.678Z,17.71
2023-08-11T00:37:13.210Z,17.71
2023-08-11T00:37:41.474Z,17.71
2023-08-11T00:38:11.527Z,17.72
2023-08-11T00:38:41.523Z,17.70
2023-08-11T00:39:11.493Z,17.72
2023-08-11T00:39:42.005Z,17.71
2023-08-11T00:40:11.894Z,17.70
2023-08-11T00:40:41.469Z,17.70
2023-08-11T00:41:11.469Z,17.70
2023-08-11T00:41:41.562Z,17.70
2023-08-11T00:42:11.475Z,17.68
2023-08-11T00:42:41.450Z,17.66
2023-08-11T00:43:11.436Z,17.63
2023-08-11T00:43:41.423Z,17.62
2023-08-11T00:44:11.439Z,17.59
2023-08-11T00:44:41.420Z,17.58
2023-08-11T00:45:11.493Z,17.58
2023-08-11T00:45:41.433Z,17.58
2023-08-11T00:46:11.418Z,17.58
2023-08-11T00:46:41.395Z,17.59
2023-08-11T00:47:11.533Z,17.58
2023-08-11T00:47:41.453Z,17.56
2023-08-11T00:48:11.413Z,17.58
2023-08-11T00:48:41.579Z,17.58
2023-08-11T00:49:11.355Z,17.58
2023-08-11T00:49:42.298Z,17.56
2023-08-11T00:50:11.565Z,17.58
2023-08-11T00:50:42.065Z,17.58
2023-08-11T00:51:11.328Z,17.58
2023-08-11T00:51:41.373Z,17.59
2023-08-11T00:52:11.339Z,17.58
2023-08-11T00:52:44.997Z,17.58
2023-08-11T00:53:11.346Z,17.59
2023-08-11T00:53:41.330Z,17.59
2023-08-11T00:54:11.363Z,17.62
2023-08-11T00:54:41.456Z,17.62
2023-08-11T00:55:11.356Z,17.62
2023-08-11T00:55:41.813Z,17.63
2023-08-11T00:56:11.294Z,17.63
2023-08-11T00:56:41.382Z,17.63
2023-08-11T00:57:12.239Z,17.62
2023-08-11T00:57:41.302Z,17.64
2023-08-11T00:58:15.896Z,17.63
2023-08-11T00:58:41.286Z,17.63
2023-08-11T00:59:12.465Z,17.63
2023-08-11T00:59:41.296Z,17.62
2023-08-11T01:00:11.315Z,17.59
2023-08-11T01:00:41.289Z,17.59
2023-08-11T01:01:11.334Z,17.58
2023-08-11T01:01:41.394Z,17.58
2023-08-11T01:02:11.408Z,17.58
2023-08-11T01:02:41.736Z,17.58
2023-08-11T01:03:11.277Z,17.58
2023-08-11T01:03:41.526Z,17.56
2023-08-11T01:04:13.890Z,17.56
2023-08-11T01:04:41.791Z,17.55
2023-08-11T01:05:11.237Z,17.56
2023-08-11T01:05:41.206Z,17.56
2023-08-11T01:06:11.210Z,17.55
2023-08-11T01:06:41.308Z,17.55
2023-08-11T01:07:11.163Z,17.56
2023-08-11T01:07:41.191Z,17.55
2023-08-11T01:08:12.050Z,17.55
2023-08-11T01:08:41.983Z,17.56
2023-08-11T01:09:11.225Z,17.58
2023-08-11T01:09:41.188Z,17.58
2023-08-11T01:10:11.158Z,17.58
2023-08-11T01:10:41.683Z,17.58
2023-08-11T01:11:11.142Z,17.58
2023-08-11T01:11:41.136Z,17.58
2023-08-11T01:12:11.196Z,17.59
2023-08-11T01:12:41.128Z,17.58
2023-08-11T01:13:11.131Z,17.58
2023-08-11T01:13:41.112Z,17.59
2023-08-11T01:14:11.168Z,17.59
2023-08-11T01:14:41.124Z,17.59
2023-08-11T01:15:11.126Z,17.59
2023-08-11T01:15:41.946Z,17.58
2023-08-11T01:16:11.129Z,17.56
2023-08-11T01:16:41.153Z,17.56
2023-08-11T01:17:11.518Z,17.56
2023-08-11T01:17:41.139Z,17.56
2023-08-11T01:18:12.917Z,17.55
2023-08-11T01:18:42.282Z,17.58
2023-08-11T01:19:11.140Z,17.56
2023-08-11T01:19:41.056Z,17.55
2023-08-11T01:20:11.073Z,17.55
2023-08-11T01:20:41.077Z,17.56
2023-08-11T01:21:11.749Z,17.56
2023-08-11T01:21:41.087Z,17.56
2023-08-11T01:22:11.049Z,17.58
2023-08-11T01:22:41.132Z,17.56
2023-08-11T01:23:11.052Z,17.58
2023-08-11T01:23:41.022Z,17.58
2023-08-11T01:24:11.037Z,17.56
2023-08-11T01:24:41.034Z,17.56
2023-08-11T01:25:11.006Z,17.56
2023-08-11T01:25:41.066Z,17.55
2023-08-11T01:26:11.033Z,17.54
2023-08-11T01:26:41.984Z,17.54
2023-08-11T01:27:14.415Z,17.54
2023-08-11T01:27:40.986Z,17.52
2023-08-11T01:28:10.990Z,17.52
2023-08-11T01:28:42.103Z,17.52
2023-08-11T01:29:10.970Z,17.51
2023-08-11T01:29:40.977Z,17.49
2023-08-11T01:30:11.002Z,17.49
2023-08-11T01:30:41.013Z,17.49
2023-08-11T01:31:11.008Z,17.51
2023-08-11T01:31:40.936Z,17.51
2023-08-11T01:32:11.088Z,17.51
2023-08-11T01:32:41.154Z,17.51
2023-08-11T01:33:11.001Z,17.51
2023-08-11T01:33:40.942Z,17.52
2023-08-11T01:34:10.947Z,17.52
2023-08-11T01:34:40.949Z,17.52
2023-08-11T01:35:10.941Z,17.51
2023-08-11T01:35:41.902Z,17.49
2023-08-11T01:36:10.922Z,17.49
2023-08-11T01:36:40.919Z,17.49
2023-08-11T01:37:11.524Z,17.48
2023-08-11T01:37:43.229Z,17.46
2023-08-11T01:38:11.320Z,17.46
2023-08-11T01:38:41.471Z,17.43
2023-08-11T01:39:10.888Z,17.40
2023-08-11T01:39:40.888Z,17.41
2023-08-11T01:40:10.977Z,17.40
2023-08-11T01:40:40.875Z,17.40
2023-08-11T01:41:10.879Z,17.40
2023-08-11T01:41:40.926Z,17.37
2023-08-11T01:42:10.852Z,17.40
2023-08-11T01:42:46.651Z,17.38
2023-08-11T01:43:10.816Z,17.38
2023-08-11T01:43:40.820Z,17.38
2023-08-11T01:44:10.834Z,17.37
2023-08-11T01:44:40.813Z,17.37
2023-08-11T01:45:10.822Z,17.37
2023-08-11T01:45:40.837Z,17.37
2023-08-11T01:46:10.994Z,17.38
2023-08-11T01:46:41.050Z,17.40
2023-08-11T01:47:11.041Z,17.38
2023-08-11T01:47:40.870Z,17.38
2023-08-11T01:48:10.972Z,17.38
2023-08-11T01:48:40.851Z,17.40
2023-08-11T01:49:10.801Z,17.38
2023-08-11T01:49:40.777Z,17.41
2023-08-11T01:50:10.755Z,17.43
2023-08-11T01:50:40.777Z,17.43
2023-08-11T01:51:10.777Z,17.43
2023-08-11T01:51:40.880Z,17.43
2023-08-11T01:52:10.756Z,17.44
2023-08-11T01:52:40.735Z,17.43
2023-08-11T01:53:10.733Z,17.44
2023-08-11T01:53:40.719Z,17.44
2023-08-11T01:54:10.753Z,17.44
2023-08-11T01:54:40.761Z,17.43
2023-08-11T01:55:10.732Z,17.48
2023-08-11T01:55:40.697Z,17.48
2023-08-11T01:56:10.687Z,17.48
2023-08-11T01:56:40.741Z,17.48
2023-08-11T01:57:10.725Z,17.48
2023-08-11T01:57:48.586Z,17.48
2023-08-11T01:58:10.699Z,17.48
2023-08-11T01:58:40.753Z,17.48
2023-08-11T01:59:10.682Z,17.49
2023-08-11T01:59:40.787Z,17.48
2023-08-11T02:00:10.817Z,17.49
2023-08-11T02:00:40.837Z,17.51
2023-08-11T02:01:10.636Z,17.49
2023-08-11T02:01:40.816Z,17.49
2023-08-11T02:02:10.650Z,17.51
2023-08-11T02:02:40.702Z,17.49
2023-08-11T02:03:10.692Z,17.49
2023-08-11T02:03:40.688Z,17.49
2023-08-11T02:04:10.646Z,17.51
2023-08-11T02:04:40.691Z,17.49
2023-08-11T02:05:10.609Z,17.51
2023-08-11T02:05:40.613Z,17.49
2023-08-11T02:06:11.491Z,17.51
2023-08-11T02:06:40.658Z,17.51
2023-08-11T02:07:10.566Z,17.48
2023-08-11T02:07:40.576Z,17.49
2023-08-11T02:08:10.577Z,17.49
2023-08-11T02:08:40.544Z,17.49
2023-08-11T02:09:10.587Z,17.49
2023-08-11T02:09:40.590Z,17.49
2023-08-11T02:10:10.548Z,17.49
2023-08-11T02:10:40.667Z,17.48
2023-08-11T02:11:10.603Z,17.49
2023-08-11T02:11:40.539Z,17.51
2023-08-11T02:12:10.789Z,17.51
2023-08-11T02:12:40.512Z,17.49
2023-08-11T02:13:10.511Z,17.51
2023-08-11T02:13:40.529Z,17.51
2023-08-11T02:14:10.614Z,17.51
2023-08-11T02:14:40.730Z,17.52
2023-08-11T02:15:10.495Z,17.52
2023-08-11T02:15:40.583Z,17.52
2023-08-11T02:16:10.546Z,17.52
2023-08-11T02:16:40.471Z,17.52
2023-08-11T02:17:10.528Z,17.52
2023-08-11T02:17:40.571Z,17.52
2023-08-11T02:18:10.583Z,17.52
2023-08-11T02:18:40.467Z,17.52
2023-08-11T02:19:10.429Z,17.52
2023-08-11T02:19:40.470Z,17.54
2023-08-11T02:20:10.455Z,17.54
2023-08-11T02:20:40.469Z,17.54
2023-08-11T02:21:10.520Z,17.54
2023-08-11T02:21:40.603Z,17.52
2023-08-11T02:22:10.578Z,17.54
2023-08-11T02:22:40.435Z,17.54
2023-08-11T02:23:10.432Z,17.54
2023-08-11T02:23:40.429Z,17.54
2023-08-11T02:24:10.497Z,17.55
2023-08-11T02:24:40.451Z,17.55
2023-08-11T02:25:10.538Z,17.56
2023-08-11T02:25:40.479Z,17.56
2023-08-11T02:26:10.443Z,17.56
2023-08-11T02:26:40.435Z,17.58
2023-08-11T02:27:10.403Z,17.56
2023-08-11T02:27:40.400Z,17.56
2023-08-11T02:28:10.511Z,17.56
2023-08-11T02:28:40.590Z,17.56
2023-08-11T02:29:10.455Z,17.56
2023-08-11T02:29:40.398Z,17.56
2023-08-11T02:30:10.324Z,17.56
2023-08-11T02:30:40.335Z,17.58
2023-08-11T02:31:10.485Z,17.58
2023-08-11T02:31:40.374Z,17.56
2023-08-11T02:32:10.363Z,17.59
2023-08-11T02:32:40.378Z,17.59
2023-08-11T02:33:10.446Z,17.58
2023-08-11T02:33:40.339Z,17.59
2023-08-11T02:34:10.375Z,17.59
2023-08-11T02:34:40.289Z,17.59
2023-08-11T02:35:10.508Z,17.59
2023-08-11T02:35:40.381Z,17.62
2023-08-11T02:36:10.324Z,17.62
2023-08-11T02:36:40.324Z,17.63
2023-08-11T02:37:10.424Z,17.63
2023-08-11T02:37:40.270Z,17.64
2023-08-11T02:38:10.294Z,17.64
2023-08-11T02:38:40.259Z,17.64
2023-08-11T02:39:10.230Z,17.66
2023-08-11T02:39:40.719Z,17.64
2023-08-11T02:40:10.429Z,17.66
2023-08-11T02:40:40.299Z,17.64
2023-08-11T02:41:10.234Z,17.68
2023-08-11T02:41:40.260Z,17.66
2023-08-11T02:42:10.676Z,17.68
2023-08-11T02:42:40.607Z,17.68
2023-08-11T02:43:10.218Z,17.66
2023-08-11T02:43:40.240Z,17.66
2023-08-11T02:44:10.261Z,17.68
2023-08-11T02:44:40.221Z,17.68
2023-08-11T02:45:10.247Z,17.70
2023-08-11T02:45:40.343Z,17.68
2023-08-11T02:46:10.571Z,17.68
2023-08-11T02:46:40.177Z,17.68
2023-08-11T02:47:10.177Z,17.68
2023-08-11T02:47:40.155Z,17.68
2023-08-11T02:48:10.200Z,17.68
2023-08-11T02:48:40.132Z,17.68
2023-08-11T02:49:10.141Z,17.68
2023-08-11T02:49:40.177Z,17.68
2023-08-11T02:50:10.260Z,17.70
2023-08-11T02:50:40.183Z,17.68
2023-08-11T02:51:10.120Z,17.70
2023-08-11T02:51:40.547Z,17.70
2023-08-11T02:52:10.386Z,17.66
2023-08-11T02:52:40.150Z,17.66
2023-08-11T02:53:10.184Z,17.64
2023-08-11T02:53:40.173Z,17.66
2023-08-11T02:54:10.138Z,17.64
2023-08-11T02:54:41.376Z,17.64
2023-08-11T02:55:10.419Z,17.64
2023-08-11T02:55:40.086Z,17.66
2023-08-11T02:56:10.174Z,17.64
2023-08-11T02:56:40.238Z,17.64
2023-08-11T02:57:11.670Z,17.64
2023-08-11T02:57:40.068Z,17.63
2023-08-11T02:58:10.077Z,17.64
2023-08-11T02:58:40.038Z,17.63
2023-08-11T02:59:10.033Z,17.62
2023-08-11T02:59:40.096Z,17.62
2023-08-11T03:00:10.046Z,17.59
2023-08-11T03:00:40.074Z,17.58
2023-08-11T03:01:10.015Z,17.59
2023-08-11T03:01:40.041Z,17.56
2023-08-11T03:02:10.231Z,17.56
2023-08-11T03:02:40.079Z,17.55
2023-08-11T03:03:10.066Z,17.54
2023-08-11T03:03:40.010Z,17.51
2023-08-11T03:04:10.025Z,17.52
2023-08-11T03:04:40.418Z,17.52
2023-08-11T03:05:09.968Z,17.51
2023-08-11T03:05:39.996Z,17.51
2023-08-11T03:06:09.971Z,17.51
2023-08-11T03:06:41.512Z,17.52
2023-08-11T03:07:10.006Z,17.52
2023-08-11T03:07:39.958Z,17.51
2023-08-11T03:08:09.933Z,17.51
2023-08-11T03:08:39.951Z,17.49
2023-08-11T03:09:09.934Z,17.49
2023-08-11T03:09:40.006Z,17.48
2023-08-11T03:10:10.052Z,17.48
2023-08-11T03:10:54.712Z,17.49
2023-08-11T03:11:09.963Z,17.48
2023-08-11T03:11:39.911Z,17.48
2023-08-11T03:12:10.680Z,17.46
2023-08-11T03:12:39.915Z,17.48
2023-08-11T03:13:09.961Z,17.48
2023-08-11T03:13:39.884Z,17.46
2023-08-11T03:14:09.922Z,17.48
2023-08-11T03:14:39.875Z,17.49
2023-08-11T03:15:09.971Z,17.46
2023-08-11T03:15:40.032Z,17.46
2023-08-11T03:16:09.902Z,17.46
2023-08-11T03:16:39.923Z,17.48
2023-08-11T03:17:09.872Z,17.48
2023-08-11T03:17:40.766Z,17.48
2023-08-11T03:18:09.909Z,17.49
2023-08-11T03:18:39.835Z,17.49
2023-08-11T03:19:09.861Z,17.49
2023-08-11T03:19:39.837Z,17.49
2023-08-11T03:20:09.835Z,17.51
2023-08-11T03:20:39.887Z,17.51
2023-08-11T03:21:19.369Z,17.51
2023-08-11T03:21:39.862Z,17.51
2023-08-11T03:22:10.047Z,17.51
2023-08-11T03:22:39.828Z,17.51
2023-08-11T03:23:09.820Z,17.51
2023-08-11T03:23:41.324Z,17.51
2023-08-11T03:24:11.217Z,17.49
2023-08-11T03:24:39.870Z,17.49
2023-08-11T03:25:09.837Z,17.49
2023-08-11T03:25:39.775Z,17.49
2023-08-11T03:26:09.758Z,17.51
2023-08-11T03:26:39.750Z,17.49
2023-08-11T03:27:09.821Z,17.49
2023-08-11T03:27:39.748Z,17.49
2023-08-11T03:28:09.689Z,17.49
2023-08-11T03:28:39.713Z,17.49
2023-08-11T03:29:09.734Z,17.49
2023-08-11T03:29:41.170Z,17.48
2023-08-11T03:30:10.518Z,17.48
2023-08-11T03:30:39.720Z,17.48
2023-08-11T03:31:09.656Z,17.48
2023-08-11T03:31:39.653Z,17.48
2023-08-11T03:32:09.953Z,17.44
2023-08-11T03:32:39.806Z,17.44
2023-08-11T03:33:09.731Z,17.43
2023-08-11T03:33:39.619Z,17.43
2023-08-11T03:34:09.635Z,17.41
2023-08-11T03:34:39.700Z,17.40
2023-08-11T03:35:13.052Z,17.37
2023-08-11T03:35:39.595Z,17.36
2023-08-11T03:36:09.608Z,17.33
2023-08-11T03:36:40.394Z,17.31
2023-08-11T03:37:09.597Z,17.30
2023-08-11T03:37:39.635Z,17.26
2023-08-11T03:38:09.754Z,17.25
2023-08-11T03:38:39.828Z,17.23
2023-08-11T03:39:09.592Z,17.21
2023-08-11T03:39:39.657Z,17.19
2023-08-11T03:40:09.570Z,17.18
2023-08-11T03:40:39.568Z,17.16
2023-08-11T03:41:09.577Z,17.14
2023-08-11T03:41:39.565Z,17.14
2023-08-11T03:42:12.050Z,17.14
2023-08-11T03:42:39.586Z,17.11
2023-08-11T03:43:09.571Z,17.08
2023-08-11T03:43:39.575Z,17.07
2023-08-11T03:44:09.601Z,17.07
2023-08-11T03:44:39.520Z,17.06
2023-08-11T03:45:09.556Z,17.04
2023-08-11T03:45:39.615Z,17.03
2023-08-11T03:46:09.946Z,17.01
2023-08-11T03:46:39.581Z,17.00
2023-08-11T03:47:09.557Z,16.98
2023-08-11T03:47:39.474Z,16.97
2023-08-11T03:48:09.521Z,16.94
2023-08-11T03:48:39.545Z,16.94
2023-08-11T03:49:09.510Z,16.93
2023-08-11T03:49:39.467Z,16.91
2023-08-11T03:50:09.546Z,16.89
2023-08-11T03:50:39.517Z,16.89
2023-08-11T03:51:09.488Z,16.89
2023-08-11T03:51:39.562Z,16.89
2023-08-11T03:52:10.003Z,16.88
2023-08-11T03:52:39.643Z,16.89
2023-08-11T03:53:09.478Z,16.86
2023-08-11T03:53:48.065Z,16.86
2023-08-11T03:54:09.418Z,16.86
2023-08-11T03:54:45.489Z,16.85
2023-08-11T03:55:09.399Z,16.85
2023-08-11T03:55:39.409Z,16.86
2023-08-11T03:56:09.414Z,16.86
2023-08-11T03:56:39.440Z,16.85
2023-08-11T03:57:09.495Z,16.85
2023-08-11T03:57:39.407Z,16.82
2023-08-11T03:58:10.508Z,16.82
2023-08-11T03:58:39.417Z,16.82
2023-08-11T03:59:09.409Z,16.79
2023-08-11T03:59:39.380Z,16.81
2023-08-11T04:00:09.423Z,16.79
2023-08-11T04:00:39.664Z,16.78
2023-08-11T04:01:09.377Z,16.79
2023-08-11T04:01:39.330Z,16.79
2023-08-11T04:02:09.656Z,16.78
2023-08-11T04:02:39.382Z,16.78
2023-08-11T04:03:09.536Z,16.78
2023-08-11T04:03:39.425Z,16.79
2023-08-11T04:04:09.417Z,16.76
2023-08-11T04:04:39.353Z,16.78
2023-08-11T04:05:09.424Z,16.75
2023-08-11T04:05:39.391Z,16.75
2023-08-11T04:06:09.506Z,16.73
2023-08-11T04:06:39.570Z,16.75
2023-08-11T04:07:09.333Z,16.73
2023-08-11T04:07:39.313Z,16.73
2023-08-11T04:08:09.372Z,16.71
2023-08-11T04:08:39.324Z,16.73
2023-08-11T04:09:09.318Z,16.73
2023-08-11T04:09:39.276Z,16.70
2023-08-11T04:10:10.937Z,16.68
2023-08-11T04:10:39.264Z,16.70
2023-08-11T04:11:09.399Z,16.70
2023-08-11T04:11:40.354Z,16.70
2023-08-11T04:12:09.398Z,16.70
2023-08-11T04:12:39.264Z,16.70
2023-08-11T04:13:09.427Z,16.67
2023-08-11T04:13:39.325Z,16.67
2023-08-11T04:14:09.259Z,16.66
2023-08-11T04:14:39.234Z,16.66
2023-08-11T04:15:09.257Z,16.67
2023-08-11T04:15:39.244Z,16.66
2023-08-11T04:16:09.295Z,16.66
2023-08-11T04:16:39.293Z,16.66
2023-08-11T04:17:09.225Z,16.64
2023-08-11T04:17:39.271Z,16.63
2023-08-11T04:18:09.340Z,16.63
2023-08-11T04:18:39.165Z,16.61
2023-08-11T04:19:09.234Z,16.61
2023-08-11T04:19:39.173Z,16.60
2023-08-11T04:20:09.325Z,16.60
2023-08-11T04:20:39.437Z,16.60
2023-08-11T04:21:09.183Z,16.60
2023-08-11T04:21:39.147Z,16.57
2023-08-11T04:22:09.314Z,16.57
2023-08-11T04:22:39.606Z,16.56
2023-08-11T04:23:09.185Z,16.57
2023-08-11T04:23:39.234Z,16.56
2023-08-11T04:24:09.137Z,16.56
2023-08-11T04:24:39.120Z,16.57
2023-08-11T04:25:09.129Z,16.56
2023-08-11T04:25:39.110Z,16.53
2023-08-11T04:26:09.171Z,16.53
2023-08-11T04:26:39.109Z,16.56
2023-08-11T04:27:09.115Z,16.57
2023-08-11T04:27:39.106Z,16.56
2023-08-11T04:28:09.126Z,16.56
2023-08-11T04:28:39.155Z,16.56
2023-08-11T04:29:09.044Z,16.56
2023-08-11T04:29:39.182Z,16.56
2023-08-11T04:30:09.086Z,16.57
2023-08-11T04:30:39.166Z,16.56
2023-08-11T04:31:09.103Z,16.57
2023-08-11T04:31:39.047Z,16.56
2023-08-11T04:32:09.224Z,16.53
2023-08-11T04:32:40.056Z,16.53
2023-08-11T04:33:09.163Z,16.56
2023-08-11T04:33:39.104Z,16.53
2023-08-11T04:34:09.153Z,16.53
2023-08-11T04:34:39.246Z,16.57
2023-08-11T04:35:09.056Z,16.56
2023-08-11T04:35:39.016Z,16.56
2023-08-11T04:36:08.993Z,16.56
2023-08-11T04:36:39.003Z,16.53
2023-08-11T04:37:08.979Z,16.56
2023-08-11T04:37:39.094Z,16.53
2023-08-11T04:38:09.051Z,16.56
2023-08-11T04:38:39.092Z,16.53
2023-08-11T04:39:09.115Z,16.53
2023-08-11T04:39:39.022Z,16.53
2023-08-11T04:40:08.998Z,16.52
2023-08-11T04:40:38.952Z,16.53
2023-08-11T04:41:09.009Z,16.53
2023-08-11T04:41:38.953Z,16.52
2023-08-11T04:42:09.440Z,16.53
2023-08-11T04:42:38.965Z,16.57
2023-08-11T04:43:08.910Z,16.53
2023-08-11T04:43:38.938Z,16.56
2023-08-11T04:44:08.932Z,16.56
2023-08-11T04:44:38.930Z,16.53
2023-08-11T04:45:08.896Z,16.56
2023-08-11T04:45:38.880Z,16.56
2023-08-11T04:46:08.875Z,16.57
2023-08-11T04:46:38.997Z,16.56
2023-08-11T04:47:08.945Z,16.57
2023-08-11T04:47:39.012Z,16.57
2023-08-11T04:48:09.075Z,16.56
2023-08-11T04:48:39.127Z,16.57
2023-08-11T04:49:08.865Z,16.57
2023-08-11T04:49:38.927Z,16.57
2023-08-11T04:50:09.259Z,16.58
2023-08-11T04:50:38.943Z,16.56
2023-08-11T04:51:08.904Z,16.56
2023-08-11T04:51:38.909Z,16.53
2023-08-11T04:52:09.009Z,16.56
2023-08-11T04:52:38.881Z,16.56
2023-08-11T04:53:08.883Z,16.56
2023-08-11T04:53:38.866Z,16.56
2023-08-11T04:54:08.913Z,16.53
2023-08-11T04:54:39.215Z,16.56
2023-08-11T04:55:09.067Z,16.57
2023-08-11T04:55:38.810Z,16.53
2023-08-11T04:56:08.800Z,16.53
2023-08-11T04:56:38.780Z,16.57
2023-08-11T04:57:08.804Z,16.53
2023-08-11T04:57:38.811Z,16.52
2023-08-11T04:58:08.787Z,16.52
2023-08-11T04:58:38.765Z,16.53
2023-08-11T04:59:08.927Z,16.52
2023-08-11T04:59:38.758Z,16.52
2023-08-11T05:00:08.750Z,16.53
2023-08-11T05:00:39.194Z,16.52
2023-08-11T05:01:08.740Z,16.52
2023-08-11T05:01:38.806Z,16.52
2023-08-11T05:02:09.170Z,16.52
2023-08-11T05:02:38.955Z,16.52
2023-08-11T05:03:08.748Z,16.52
2023-08-11T05:03:38.812Z,16.50
2023-08-11T05:04:09.159Z,16.52
2023-08-11T05:04:38.713Z,16.52
2023-08-11T05:05:09.528Z,16.52
2023-08-11T05:05:38.676Z,16.53
2023-08-11T05:06:08.688Z,16.53
2023-08-11T05:06:38.722Z,16.53
2023-08-11T05:07:08.946Z,16.56
2023-08-11T05:07:38.706Z,16.56
2023-08-11T05:08:08.679Z,16.56
2023-08-11T05:08:38.664Z,16.53
2023-08-11T05:09:08.648Z,16.56
2023-08-11T05:09:38.768Z,16.53
2023-08-11T05:10:09.539Z,16.56
2023-08-11T05:10:38.638Z,16.56
2023-08-11T05:11:08.648Z,16.56
2023-08-11T05:11:38.638Z,16.57
2023-08-11T05:12:08.812Z,16.57
2023-08-11T05:12:38.641Z,16.57
2023-08-11T05:13:08.681Z,16.58
2023-08-11T05:13:38.728Z,16.58
2023-08-11T05:14:08.678Z,16.61
2023-08-11T05:14:38.656Z,16.61
2023-08-11T05:15:08.605Z,16.61
2023-08-11T05:15:38.681Z,16.61
2023-08-11T05:16:08.738Z,16.64
2023-08-11T05:16:38.807Z,16.64
2023-08-11T05:17:08.839Z,16.64
2023-08-11T05:17:38.616Z,16.66
2023-08-11T05:18:08.589Z,16.66
2023-08-11T05:18:43.807Z,16.67
2023-08-11T05:19:08.618Z,16.68
2023-08-11T05:19:38.560Z,16.70
2023-08-11T05:20:08.645Z,16.70
2023-08-11T05:20:38.519Z,16.68
2023-08-11T05:21:08.593Z,16.71
2023-08-11T05:21:38.643Z,16.70
2023-08-11T05:22:08.662Z,16.70
2023-08-11T05:22:38.586Z,16.71
2023-08-11T05:23:08.504Z,16.71
2023-08-11T05:23:38.507Z,16.71
2023-08-11T05:24:08.538Z,16.71
2023-08-11T05:24:38.486Z,16.73
2023-08-11T05:25:12.675Z,16.73
2023-08-11T05:25:38.492Z,16.76
2023-08-11T05:26:08.510Z,16.75
2023-08-11T05:26:38.497Z,16.78
2023-08-11T05:27:08.630Z,16.78
2023-08-11T05:27:38.495Z,16.78
2023-08-11T05:28:08.584Z,16.79
2023-08-11T05:28:38.500Z,16.79
2023-08-11T05:29:11.055Z,16.81
2023-08-11T05:29:38.480Z,16.82
2023-08-11T05:30:08.557Z,16.82
2023-08-11T05:30:38.652Z,16.85
2023-08-11T05:31:08.467Z,16.85
2023-08-11T05:31:38.462Z,16.85
2023-08-11T05:32:08.486Z,16.85
2023-08-11T05:32:38.497Z,16.85
2023-08-11T05:33:08.456Z,16.88
2023-08-11T05:33:38.387Z,16.88
2023-08-11T05:34:08.444Z,16.88
2023-08-11T05:34:38.365Z,16.89
2023-08-11T05:35:08.422Z,16.91
2023-08-11T05:35:38.407Z,16.91
2023-08-11T05:36:08.399Z,16.91
2023-08-11T05:36:38.356Z,16.93
2023-08-11T05:37:08.685Z,16.91
2023-08-11T05:37:38.433Z,16.93
2023-08-11T05:38:08.374Z,16.91
2023-08-11T05:38:38.328Z,16.91
2023-08-11T05:39:08.356Z,16.93
2023-08-11T05:39:40.079Z,16.93
2023-08-11T05:40:08.299Z,16.93
2023-08-11T05:40:38.396Z,16.94
2023-08-11T05:41:08.311Z,16.93
2023-08-11T05:41:38.357Z,16.94
2023-08-11T05:42:08.382Z,16.96
2023-08-11T05:42:38.300Z,16.96
2023-08-11T05:43:08.307Z,16.97
2023-08-11T05:43:38.535Z,16.97
2023-08-11T05:44:08.411Z,16.98
2023-08-11T05:44:38.481Z,16.98
2023-08-11T05:45:08.316Z,17.00
2023-08-11T05:45:38.291Z,17.00
2023-08-11T05:46:08.393Z,17.01
2023-08-11T05:46:38.328Z,17.01
2023-08-11T05:47:08.471Z,17.01
2023-08-11T05:47:38.297Z,17.03
2023-08-11T05:48:08.294Z,17.03
2023-08-11T05:48:39.072Z,17.04
2023-08-11T05:49:08.293Z,17.04
2023-08-11T05:49:38.272Z,17.04
2023-08-11T05:50:08.264Z,17.04
2023-08-11T05:50:38.308Z,17.07
2023-08-11T05:51:08.200Z,17.06
2023-08-11T05:51:38.195Z,17.06
2023-08-11T05:52:08.320Z,17.06
2023-08-11T05:52:38.322Z,17.08
2023-08-11T05:53:08.240Z,17.06
2023-08-11T05:53:38.195Z,17.08
2023-08-11T05:54:08.189Z,17.11
2023-08-11T05:54:38.224Z,17.11
2023-08-11T05:55:08.221Z,17.11
2023-08-11T05:55:38.157Z,17.12
2023-08-11T05:56:08.231Z,17.12
2023-08-11T05:56:38.197Z,17.15
2023-08-11T05:57:08.416Z,17.12
2023-08-11T05:57:38.212Z,17.15
2023-08-11T05:58:08.246Z,17.15
2023-08-11T05:58:38.324Z,17.16
2023-08-11T05:59:08.193Z,17.14
2023-08-11T05:59:38.127Z,17.16
2023-08-11T06:00:08.175Z,17.16
2023-08-11T06:00:38.232Z,17.16
2023-08-11T06:01:08.200Z,17.15
2023-08-11T06:01:38.121Z,17.15
2023-08-11T06:02:08.087Z,17.16
2023-08-11T06:02:38.124Z,17.16
2023-08-11T06:03:08.097Z,17.18
2023-08-11T06:03:38.136Z,17.19
2023-08-11T06:04:08.092Z,17.21
2023-08-11T06:04:38.077Z,17.23
2023-08-11T06:05:08.226Z,17.21
2023-08-11T06:05:38.106Z,17.22
2023-08-11T06:06:08.077Z,17.22
2023-08-11T06:06:38.090Z,17.25
2023-08-11T06:07:08.352Z,17.25
2023-08-11T06:07:38.022Z,17.25
2023-08-11T06:08:08.037Z,17.25
2023-08-11T06:08:38.088Z,17.28
2023-08-11T06:09:08.050Z,17.30
2023-08-11T06:09:38.038Z,17.31
2023-08-11T06:10:08.041Z,17.30
2023-08-11T06:10:37.998Z,17.31
2023-08-11T06:11:08.059Z,17.34
2023-08-11T06:11:38.005Z,17.34
2023-08-11T06:12:08.103Z,17.37
2023-08-11T06:12:38.385Z,17.37
2023-08-11T06:13:07.977Z,17.38
2023-08-11T06:13:37.991Z,17.40
2023-08-11T06:14:07.983Z,17.40
2023-08-11T06:14:37.984Z,17.41
2023-08-11T06:15:08.025Z,17.44
2023-08-11T06:15:38.009Z,17.44
2023-08-11T06:16:07.973Z,17.46
2023-08-11T06:16:37.963Z,17.49
2023-08-11T06:17:09.952Z,17.48
2023-08-11T06:17:37.932Z,17.51
2023-08-11T06:18:07.947Z,17.52
2023-08-11T06:18:37.929Z,17.54
2023-08-11T06:19:07.967Z,17.55
2023-08-11T06:19:37.993Z,17.56
2023-08-11T06:20:07.958Z,17.58
2023-08-11T06:20:41.467Z,17.58
2023-08-11T06:21:08.008Z,17.62
2023-08-11T06:21:37.909Z,17.63
2023-08-11T06:22:07.935Z,17.64
2023-08-11T06:22:37.896Z,17.68
2023-08-11T06:23:07.956Z,17.70
2023-08-11T06:23:37.856Z,17.70
2023-08-11T06:24:07.941Z,17.71
2023-08-11T06:24:37.848Z,17.75
2023-08-11T06:25:07.863Z,17.74
2023-08-11T06:25:38.057Z,17.75
2023-08-11T06:26:07.996Z,17.78